createdAt,value
2018-12-23T00:01:06.362Z,26.30
2018-12-23T00:03:35.840Z,25.13
2018-12-23T00:06:04.978Z,25.23
2018-12-23T00:08:34.548Z,26.60
2018-12-23T00:11:03.179Z,29.60
2018-12-23T00:13:31.800Z,26.97
2018-12-23T00:16:01.800Z,21.13
2018-12-23T00:18:31.262Z,32.10
2018-12-23T00:20:59.582Z,25.17
2018-12-23T00:23:28.517Z,24.63
2018-12-23T00:25:59.967Z,26.27
2018-12-23T00:28:29.229Z,24.83
2018-12-23T00:30:57.849Z,25.87
2018-12-23T00:33:27.221Z,27.33
2018-12-23T00:35:55.935Z,25.63
2018-12-23T00:38:24.585Z,27.57
2018-12-23T00:40:53.006Z,28.00
2018-12-23T00:43:21.291Z,28.67
2018-12-23T00:45:49.848Z,22.63
2018-12-23T00:48:19.756Z,23.40
2018-12-23T00:50:49.044Z,28.37
2018-12-23T00:53:17.613Z,22.03
2018-12-23T00:55:45.816Z,27.03
2018-12-23T00:58:14.795Z,25.93
2018-12-23T01:00:43.831Z,23.47
2018-12-23T01:03:15.524Z,24.07
2018-12-23T01:05:44.111Z,23.33
2018-12-23T01:08:13.263Z,29.27
2018-12-23T01:10:41.293Z,30.00
2018-12-23T01:13:10.076Z,28.23
2018-12-23T01:15:39.988Z,29.77
2018-12-23T01:18:09.356Z,28.57
2018-12-23T01:20:38.398Z,28.30
2018-12-23T01:23:07.760Z,24.37
2018-12-23T01:25:36.719Z,22.47
2018-12-23T01:28:05.480Z,23.57
2018-12-23T01:30:35.749Z,30.73
2018-12-23T01:33:04.588Z,28.57
2018-12-23T01:35:37.185Z,22.33
2018-12-23T01:38:03.404Z,27.60
2018-12-23T01:40:32.661Z,31.53
2018-12-23T01:43:01.291Z,28.40
2018-12-23T01:45:30.865Z,27.07
2018-12-23T01:47:59.386Z,31.37
2018-12-23T01:50:27.810Z,33.30
2018-12-23T01:52:56.684Z,31.47
2018-12-23T01:55:25.799Z,21.60
2018-12-23T01:57:54.743Z,31.13
2018-12-23T02:00:23.759Z,31.63
2018-12-23T02:02:52.211Z,28.87
2018-12-23T02:05:20.532Z,31.67
2018-12-23T02:07:49.020Z,29.90
2018-12-23T02:10:17.187Z,28.93
2018-12-23T02:12:45.793Z,28.97
2018-12-23T02:15:14.214Z,32.57
2018-12-23T02:17:42.740Z,31.83
2018-12-23T02:20:11.363Z,39.03
2018-12-23T02:22:40.938Z,28.97
2018-12-23T02:25:11.031Z,23.10
2018-12-23T02:27:39.660Z,33.43
2018-12-23T02:30:10.063Z,33.40
2018-12-23T02:32:39.114Z,34.90
2018-12-23T02:35:08.159Z,26.33
2018-12-23T02:37:37.629Z,31.60
2018-12-23T02:40:06.774Z,31.33
2018-12-23T02:42:36.035Z,37.83
2018-12-23T02:45:05.085Z,38.63
2018-12-23T02:47:33.995Z,33.00
2018-12-23T02:50:03.496Z,39.70
2018-12-23T02:52:32.444Z,33.83
2018-12-23T02:55:01.996Z,47.90
2018-12-23T02:57:30.852Z,36.87
2018-12-23T02:59:59.558Z,36.27
2018-12-23T03:02:28.044Z,34.33
2018-12-23T03:04:57.160Z,37.60
2018-12-23T03:07:25.680Z,37.77
2018-12-23T03:09:54.827Z,41.60
2018-12-23T03:12:23.042Z,37.77
2018-12-23T03:14:52.001Z,46.10
2018-12-23T03:17:20.961Z,45.67
2018-12-23T03:19:49.769Z,44.00
2018-12-23T03:22:18.917Z,42.27
2018-12-23T03:24:47.979Z,34.30
2018-12-23T03:27:17.225Z,39.93
2018-12-23T03:29:45.949Z,46.13
2018-12-23T03:32:15.045Z,47.83
2018-12-23T03:34:43.255Z,46.23
2018-12-23T03:37:12.790Z,45.37
2018-12-23T03:39:41.005Z,48.53
2018-12-23T03:42:09.612Z,43.73
2018-12-23T03:44:38.266Z,52.30
2018-12-23T03:47:08.041Z,42.90
2018-12-23T03:49:36.994Z,44.10
2018-12-23T03:52:06.764Z,45.30
2018-12-23T03:54:36.020Z,48.17
2018-12-23T03:57:05.069Z,49.67
2018-12-23T03:59:33.803Z,48.97
2018-12-23T04:02:02.955Z,47.40
2018-12-23T04:04:31.804Z,51.67
2018-12-23T04:07:03.767Z,44.27
2018-12-23T04:09:32.819Z,43.13
2018-12-23T04:12:01.285Z,52.40
2018-12-23T04:14:29.972Z,39.13
2018-12-23T04:16:58.933Z,45.90
2018-12-23T04:19:27.442Z,41.50
2018-12-23T04:21:57.098Z,36.90
2018-12-23T04:24:26.059Z,43.47
2018-12-23T04:26:55.656Z,32.87
2018-12-23T04:29:25.742Z,33.30
2018-12-23T04:31:54.982Z,43.43
2018-12-23T04:34:23.597Z,34.37
2018-12-23T04:36:52.148Z,38.83
2018-12-23T04:39:20.661Z,40.90
2018-12-23T04:41:49.811Z,38.47
2018-12-23T04:44:18.428Z,37.17
2018-12-23T04:46:46.977Z,38.03
2018-12-23T04:49:15.781Z,33.50
2018-12-23T04:51:45.660Z,41.17
2018-12-23T04:54:15.257Z,42.97
2018-12-23T04:56:43.673Z,42.63
2018-12-23T04:59:12.206Z,41.13
2018-12-23T05:01:41.459Z,42.50
2018-12-23T05:04:10.023Z,42.50
2018-12-23T05:06:43.353Z,43.23
2018-12-23T05:09:08.864Z,43.47
2018-12-23T05:11:37.125Z,41.63
2018-12-23T05:14:05.976Z,48.20
2018-12-23T05:16:35.331Z,44.87
2018-12-23T05:19:04.401Z,44.30
2018-12-23T05:21:33.100Z,41.83
2018-12-23T05:24:01.536Z,47.40
2018-12-23T05:26:30.749Z,51.53
2018-12-23T05:28:59.600Z,45.47
2018-12-23T05:31:28.678Z,41.40
2018-12-23T05:33:57.934Z,46.83
2018-12-23T05:36:26.048Z,48.37
2018-12-23T05:38:54.778Z,47.03
2018-12-23T05:41:24.777Z,46.57
2018-12-23T05:43:53.919Z,50.33
2018-12-23T05:46:23.291Z,53.97
2018-12-23T05:48:51.904Z,41.00
2018-12-23T05:51:21.062Z,41.40
2018-12-23T05:53:49.379Z,42.70
2018-12-23T05:56:17.799Z,50.83
2018-12-23T05:58:46.524Z,50.30
2018-12-23T06:01:15.900Z,50.33
2018-12-23T06:03:44.110Z,42.73
2018-12-23T06:06:13.782Z,57.57
2018-12-23T06:08:42.208Z,59.73
2018-12-23T06:11:11.877Z,42.83
2018-12-23T06:13:40.611Z,50.53
2018-12-23T06:16:10.808Z,51.33
2018-12-23T06:18:39.008Z,43.57
2018-12-23T06:21:08.063Z,36.50
2018-12-23T06:23:37.133Z,45.00
2018-12-23T06:26:06.895Z,48.13
2018-12-23T06:28:36.349Z,41.40
2018-12-23T06:31:05.095Z,41.20
2018-12-23T06:33:33.828Z,38.00
2018-12-23T06:36:03.305Z,44.63
2018-12-23T06:38:32.004Z,53.03
2018-12-23T06:41:01.084Z,47.73
2018-12-23T06:43:30.019Z,43.43
2018-12-23T06:45:59.385Z,52.33
2018-12-23T06:48:28.120Z,40.87
2018-12-23T06:50:57.367Z,47.00
2018-12-23T06:53:26.106Z,45.23
2018-12-23T06:55:54.527Z,49.87
2018-12-23T06:58:23.261Z,42.37
2018-12-23T07:00:51.787Z,37.93
2018-12-23T07:03:19.870Z,37.53
2018-12-23T07:05:48.060Z,44.83
2018-12-23T07:08:16.948Z,45.47
2018-12-23T07:10:45.472Z,37.67
2018-12-23T07:13:13.894Z,46.70
2018-12-23T07:15:42.627Z,53.10
2018-12-23T07:18:11.154Z,35.87
2018-12-23T07:20:39.980Z,45.57
2018-12-23T07:23:08.604Z,42.17
2018-12-23T07:25:37.784Z,40.97
2018-12-23T07:28:07.032Z,41.80
2018-12-23T07:30:36.183Z,39.70
2018-12-23T07:33:04.605Z,37.03
2018-12-23T07:35:33.131Z,48.63
2018-12-23T07:38:01.732Z,44.33
2018-12-23T07:40:30.186Z,45.23
2018-12-23T07:42:59.439Z,35.77
2018-12-23T07:45:28.071Z,39.80
2018-12-23T07:47:56.594Z,42.67
2018-12-23T07:50:26.165Z,46.47
2018-12-23T07:52:55.724Z,41.70
2018-12-23T07:55:24.887Z,41.93
2018-12-23T07:57:53.205Z,38.37
2018-12-23T08:00:22.881Z,30.33
2018-12-23T08:02:51.403Z,39.03
2018-12-23T08:05:19.929Z,40.63
2018-12-23T08:07:48.460Z,42.47
2018-12-23T08:10:17.868Z,42.37
2018-12-23T08:12:46.224Z,36.57
2018-12-23T08:15:16.121Z,38.90
2018-12-23T08:17:44.542Z,36.23
2018-12-23T08:20:13.729Z,54.43
2018-12-23T08:22:42.119Z,36.63
2018-12-23T08:25:10.855Z,33.87
2018-12-23T08:27:39.792Z,40.67
2018-12-23T08:30:08.223Z,41.07
2018-12-23T08:32:36.741Z,38.83
2018-12-23T08:35:05.266Z,38.07
2018-12-23T08:37:33.889Z,29.37
2018-12-23T08:42:38.565Z,34.53
2018-12-23T08:45:06.816Z,30.87
2018-12-23T08:47:35.204Z,24.07
2018-12-23T08:50:05.088Z,35.63
2018-12-23T08:52:33.720Z,28.67
2018-12-23T08:55:02.874Z,36.07
2018-12-23T08:57:31.569Z,35.07
2018-12-23T09:00:00.548Z,30.40
2018-12-23T09:02:28.978Z,26.90
2018-12-23T09:04:57.035Z,30.37
2018-12-23T09:07:25.208Z,22.83
2018-12-23T09:09:53.712Z,23.20
2018-12-23T09:12:23.802Z,24.83
2018-12-23T09:14:53.260Z,25.40
2018-12-23T09:17:21.689Z,33.07
2018-12-23T09:19:50.207Z,18.87
2018-12-23T09:22:19.829Z,35.03
2018-12-23T09:24:48.145Z,26.87
2018-12-23T09:27:18.293Z,30.93
2018-12-23T09:29:46.908Z,23.80
2018-12-23T09:32:15.983Z,26.27
2018-12-23T09:34:44.093Z,32.30
2018-12-23T09:37:12.329Z,26.27
2018-12-23T09:39:42.503Z,33.43
2018-12-23T09:42:12.063Z,28.73
2018-12-23T09:44:40.484Z,23.73
2018-12-23T09:47:10.054Z,23.03
2018-12-23T09:49:39.105Z,30.43
2018-12-23T09:52:08.581Z,23.23
2018-12-23T09:54:37.095Z,20.20
2018-12-23T09:57:06.652Z,33.20
2018-12-23T09:59:36.040Z,26.67
2018-12-23T10:02:04.872Z,32.23
2018-12-23T10:04:35.478Z,25.60
2018-12-23T10:07:03.894Z,22.97
2018-12-23T10:09:32.844Z,39.47
2018-12-23T10:12:02.857Z,29.57
2018-12-23T10:14:32.088Z,33.00
2018-12-23T10:17:01.037Z,32.60
2018-12-23T10:19:30.185Z,24.23
2018-12-23T10:22:00.076Z,26.93
2018-12-23T10:24:29.078Z,32.93
2018-12-23T10:26:57.356Z,21.57
2018-12-23T10:29:28.399Z,26.93
2018-12-23T10:31:57.236Z,29.93
2018-12-23T10:34:25.621Z,21.70
2018-12-23T10:36:54.252Z,26.23
2018-12-23T10:39:22.428Z,27.93
2018-12-23T10:41:51.086Z,28.07
2018-12-23T10:44:21.290Z,26.87
2018-12-23T10:46:50.858Z,24.17
2018-12-23T10:49:19.756Z,28.87
2018-12-23T10:51:49.790Z,31.10
2018-12-23T10:54:18.392Z,28.57
2018-12-23T10:56:48.373Z,26.70
2018-12-23T10:59:17.038Z,33.73
2018-12-23T11:01:46.300Z,31.17
2018-12-23T11:04:15.342Z,23.70
2018-12-23T11:06:43.398Z,32.07
2018-12-23T11:09:11.863Z,34.50
2018-12-23T11:11:39.944Z,29.47
2018-12-23T11:14:08.716Z,30.67
2018-12-23T11:18:02.258Z,31.07
2018-12-23T11:20:33.162Z,25.97
2018-12-23T11:23:03.453Z,37.77
2018-12-23T11:25:36.398Z,31.23
2018-12-23T11:28:06.667Z,26.17
2018-12-23T11:30:36.990Z,31.73
2018-12-23T11:33:07.218Z,32.13
2018-12-23T11:35:39.347Z,30.90
2018-12-23T11:38:10.804Z,30.77
2018-12-23T11:40:41.070Z,23.43
2018-12-23T11:43:11.813Z,27.07
2018-12-23T11:45:42.127Z,25.53
2018-12-23T11:48:14.226Z,30.40
2018-12-23T11:50:44.535Z,30.47
2018-12-23T11:53:14.909Z,22.77
2018-12-23T11:55:48.646Z,32.30
2018-12-23T11:58:18.965Z,32.90
2018-12-23T12:00:49.213Z,24.17
2018-12-23T12:03:20.526Z,29.87
2018-12-23T12:05:51.791Z,25.93
2018-12-23T12:08:23.246Z,22.10
2018-12-23T12:10:53.927Z,33.23
2018-12-23T12:13:25.146Z,25.27
2018-12-23T12:15:56.874Z,26.00
2018-12-23T12:18:28.182Z,31.87
2018-12-23T12:20:58.049Z,25.30
2018-12-23T12:23:28.345Z,28.27
2018-12-23T12:25:59.574Z,21.67
2018-12-23T12:28:30.813Z,24.50
2018-12-23T12:31:02.945Z,24.50
2018-12-23T12:33:33.313Z,22.13
2018-12-23T12:36:07.295Z,21.27
2018-12-23T12:38:38.501Z,18.90
2018-12-23T12:41:11.443Z,24.43
2018-12-23T12:43:44.302Z,22.70
2018-12-23T12:46:17.290Z,23.93
2018-12-23T12:48:48.406Z,22.37
2018-12-23T12:51:20.910Z,20.87
2018-12-23T12:53:52.249Z,22.00
2018-12-23T12:56:25.929Z,29.83
2018-12-23T12:58:57.009Z,20.40
2018-12-23T13:01:30.218Z,26.50
2018-12-23T13:04:01.933Z,23.93
2018-12-23T13:06:35.981Z,22.67
2018-12-23T13:09:08.570Z,21.30
2018-12-23T13:11:40.773Z,20.17
2018-12-23T13:14:11.086Z,19.60
2018-12-23T13:16:45.438Z,24.10
2018-12-23T13:19:17.105Z,16.43
2018-12-23T13:21:50.101Z,15.90
2018-12-23T13:24:22.669Z,17.70
2018-12-23T13:26:53.930Z,21.27
2018-12-23T13:29:25.062Z,16.27
2018-12-23T13:31:59.042Z,20.10
2018-12-23T13:34:29.320Z,12.87
2018-12-23T13:37:01.490Z,31.37
2018-12-23T13:39:31.803Z,21.57
2018-12-23T13:42:05.245Z,22.10
2018-12-23T13:44:45.874Z,17.77
2018-12-23T13:47:37.171Z,23.43
2018-12-23T13:50:34.073Z,23.83
2018-12-23T13:53:07.530Z,22.40
2018-12-23T13:55:47.334Z,21.03
2018-12-23T13:58:36.784Z,19.33
2018-12-23T14:01:12.797Z,21.67
2018-12-23T14:04:04.813Z,18.47
2018-12-23T14:06:55.946Z,19.93
2018-12-23T14:09:55.666Z,21.30
2018-12-23T14:12:26.157Z,16.97
2018-12-23T14:14:57.522Z,17.23
2018-12-23T14:17:29.087Z,19.13
2018-12-23T14:20:00.350Z,16.57
2018-12-23T14:22:32.439Z,15.00
2018-12-23T14:25:03.133Z,15.57
2018-12-23T14:27:34.354Z,15.50
2018-12-23T14:30:06.464Z,17.23
2018-12-23T14:32:38.095Z,15.80
2018-12-23T14:35:08.409Z,18.50
2018-12-23T14:37:39.634Z,13.43
2018-12-23T14:40:10.808Z,18.63
2018-12-23T14:42:41.086Z,17.13
2018-12-23T14:45:11.424Z,16.67
2018-12-23T14:47:44.536Z,16.80
2018-12-23T14:50:15.877Z,18.97
2018-12-23T14:52:47.491Z,16.50
2018-12-23T14:55:20.552Z,16.03
2018-12-23T14:57:52.842Z,15.03
2018-12-23T15:00:28.172Z,15.67
2018-12-23T15:02:58.501Z,15.83
2018-12-23T15:05:29.767Z,13.13
2018-12-23T15:08:01.333Z,14.43
2018-12-23T15:10:32.662Z,16.00
2018-12-23T15:13:06.979Z,15.83
2018-12-23T15:15:38.314Z,16.97
2018-12-23T15:18:10.924Z,16.30
2018-12-23T15:20:42.258Z,17.63
2018-12-23T15:23:12.642Z,12.23
2018-12-23T15:25:44.302Z,20.93
2018-12-23T15:28:15.647Z,12.30
2018-12-23T15:30:47.151Z,16.30
2018-12-23T15:33:18.337Z,11.70
2018-12-23T15:35:50.220Z,15.13
2018-12-23T15:38:22.797Z,14.37
2018-12-23T15:40:54.046Z,13.70
2018-12-23T15:43:25.380Z,28.10
2018-12-23T15:45:57.575Z,22.23
2018-12-23T15:48:28.810Z,19.27
2018-12-23T15:51:01.258Z,13.43
2018-12-23T15:53:34.348Z,15.10
2018-12-23T15:56:05.563Z,19.43
2018-12-23T15:58:37.460Z,15.97
2018-12-23T16:01:09.547Z,18.77
2018-12-23T16:03:45.270Z,16.23
2018-12-23T16:06:16.367Z,20.57
2018-12-23T16:08:47.833Z,13.33
2018-12-23T16:11:20.043Z,16.60
2018-12-23T16:13:50.306Z,14.87
2018-12-23T16:16:28.969Z,13.87
2018-12-23T16:19:02.282Z,14.53
2018-12-23T16:21:34.716Z,11.30
2018-12-23T16:24:07.050Z,16.70
2018-12-23T16:26:38.882Z,14.17
2018-12-23T16:29:11.884Z,12.67
2018-12-23T16:31:44.521Z,15.50
2018-12-23T16:34:15.906Z,13.17
2018-12-23T16:36:48.503Z,11.57
2018-12-23T16:39:19.668Z,14.00
2018-12-23T16:41:53.904Z,13.20
2018-12-23T16:44:24.222Z,9.90
2018-12-23T16:46:55.451Z,13.63
2018-12-23T16:49:28.493Z,9.80
2018-12-23T16:52:02.933Z,11.07
2018-12-23T16:54:35.375Z,12.57
2018-12-23T16:57:07.914Z,7.40
2018-12-23T16:59:40.271Z,11.00
2018-12-23T17:02:10.520Z,13.60
2018-12-23T17:04:41.753Z,10.73
2018-12-23T17:07:13.330Z,9.93
2018-12-23T17:09:47.516Z,9.93
2018-12-23T17:12:17.781Z,13.53
2018-12-23T17:14:49.062Z,12.03
2018-12-23T17:17:19.350Z,16.20
2018-12-23T17:19:51.963Z,11.00
2018-12-23T17:22:23.203Z,13.20
2018-12-23T17:24:53.574Z,10.67
2018-12-23T17:27:25.368Z,12.27
2018-12-23T17:29:58.490Z,10.13
2018-12-23T17:32:28.884Z,13.53
2018-12-23T17:35:00.155Z,12.53
2018-12-23T17:37:33.103Z,12.10
2018-12-23T17:40:04.796Z,13.23
2018-12-23T17:42:35.947Z,9.80
2018-12-23T17:45:07.306Z,16.13
2018-12-23T17:47:37.769Z,13.27
2018-12-23T17:50:10.570Z,11.67
2018-12-23T17:52:43.246Z,13.53
2018-12-23T17:55:14.290Z,12.47
2018-12-23T17:57:44.654Z,11.43
2018-12-23T18:00:15.996Z,12.07
2018-12-23T18:02:47.277Z,11.87
2018-12-23T18:05:19.851Z,12.80
2018-12-23T18:07:51.268Z,14.07
2018-12-23T18:10:25.145Z,10.47
2018-12-23T18:12:55.443Z,13.37
2018-12-23T18:15:28.488Z,9.43
2018-12-23T18:17:59.742Z,12.73
2018-12-23T18:20:30.098Z,9.13
2018-12-23T18:23:01.357Z,12.53
2018-12-23T18:25:32.671Z,13.93
2018-12-23T18:28:04.962Z,10.30
2018-12-23T18:30:37.630Z,10.10
2018-12-23T18:33:09.961Z,11.83
2018-12-23T18:35:41.141Z,15.47
2018-12-23T18:38:13.050Z,12.60
2018-12-23T18:40:45.570Z,10.03
2018-12-23T18:43:17.858Z,12.33
2018-12-23T18:45:49.089Z,11.50
2018-12-23T18:48:20.265Z,10.17
2018-12-23T18:50:53.378Z,12.00
2018-12-23T18:53:23.727Z,11.67
2018-12-23T18:55:55.341Z,9.90
2018-12-23T18:58:27.082Z,11.37
2018-12-23T19:00:58.324Z,13.63
2018-12-23T19:03:28.331Z,10.50
2018-12-23T19:05:58.902Z,11.63
2018-12-23T19:08:31.433Z,14.33
2018-12-23T19:11:20.186Z,17.27
2018-12-23T19:14:00.422Z,15.60
2018-12-23T19:16:47.054Z,15.80
2018-12-23T19:19:45.843Z,14.63
2018-12-23T19:22:22.263Z,16.90
2018-12-23T19:25:08.254Z,18.37
2018-12-23T19:27:57.097Z,19.27
2018-12-23T19:31:01.021Z,15.67
2018-12-23T19:33:40.818Z,22.57
2018-12-23T19:36:29.010Z,21.80
2018-12-23T19:39:04.129Z,20.07
2018-12-23T19:41:59.284Z,20.40
2018-12-23T19:44:45.062Z,20.00
2018-12-23T19:47:33.650Z,20.63
2018-12-23T19:50:11.495Z,20.50
2018-12-23T19:53:00.871Z,19.37
2018-12-23T19:56:10.225Z,14.23
2018-12-23T19:59:18.980Z,19.17
2018-12-23T20:02:01.306Z,14.57
2018-12-23T20:04:57.009Z,15.30
2018-12-23T20:07:33.072Z,16.47
2018-12-23T20:10:19.335Z,12.17
2018-12-23T20:13:15.406Z,10.20
2018-12-23T20:19:03.041Z,11.23
2018-12-23T20:22:07.991Z,14.03
2018-12-23T20:24:43.217Z,13.30
2018-12-23T20:27:32.010Z,13.70
2018-12-23T20:30:22.144Z,12.70
2018-12-23T20:32:56.629Z,9.93
2018-12-23T20:35:39.889Z,12.47
2018-12-23T20:38:28.242Z,12.07
2018-12-23T20:41:19.648Z,11.33
2018-12-23T20:44:02.701Z,12.13
2018-12-23T20:46:44.109Z,9.60
2018-12-23T20:49:24.317Z,9.60
2018-12-23T20:52:14.829Z,8.17
2018-12-23T20:54:52.880Z,9.27
2018-12-23T20:57:37.738Z,8.00
2018-12-23T21:00:32.954Z,8.33
2018-12-23T21:03:11.966Z,5.90
2018-12-23T21:05:43.348Z,8.33
2018-12-23T21:08:46.291Z,7.80
2018-12-23T21:11:23.086Z,5.77
2018-12-23T21:14:10.638Z,6.77
2018-12-23T21:16:48.089Z,6.67
2018-12-23T21:19:41.678Z,6.00
2018-12-23T21:22:25.170Z,7.57
2018-12-23T21:25:11.097Z,6.30
2018-12-23T21:28:03.751Z,8.60
2018-12-23T21:30:37.553Z,7.93
2018-12-23T21:33:30.093Z,8.07
2018-12-23T21:36:33.569Z,9.53
2018-12-23T21:39:25.838Z,8.47
2018-12-23T21:41:58.971Z,6.40
2018-12-23T21:44:52.634Z,8.97
2018-12-23T21:47:42.146Z,8.53
2018-12-23T21:50:33.888Z,9.10
2018-12-23T21:53:08.295Z,6.27
2018-12-23T21:55:44.182Z,7.50
2018-12-23T21:58:16.582Z,4.93
2018-12-23T22:00:55.776Z,6.20
2018-12-23T22:03:43.904Z,6.33
2018-12-23T22:06:33.323Z,6.30
2018-12-23T22:09:39.792Z,5.80
2018-12-23T22:12:32.140Z,8.57
2018-12-23T22:15:02.735Z,6.87
2018-12-23T22:17:35.148Z,7.20
2018-12-23T22:20:06.959Z,6.60
2018-12-23T22:22:38.417Z,8.20
2018-12-23T22:25:08.394Z,9.60
2018-12-23T22:27:40.642Z,10.03
2018-12-23T22:30:11.941Z,7.60
2018-12-23T22:32:43.212Z,9.07
2018-12-23T22:35:13.582Z,8.30
2018-12-23T22:40:36.779Z,6.97
2018-12-23T22:43:08.024Z,7.23
2018-12-23T22:45:39.225Z,7.47
2018-12-23T22:48:10.101Z,7.47
2018-12-23T22:50:40.162Z,8.97
2018-12-23T22:53:11.914Z,9.20
2018-12-23T22:55:42.261Z,7.93
2018-12-23T22:58:13.453Z,8.63
2018-12-23T23:00:45.805Z,9.47
2018-12-23T23:03:17.119Z,10.13
2018-12-23T23:05:48.229Z,10.10
2018-12-23T23:08:19.890Z,8.53
2018-12-23T23:10:51.155Z,11.40
2018-12-23T23:13:22.291Z,10.60
2018-12-23T23:15:54.786Z,12.77
2018-12-23T23:18:26.934Z,8.47
2018-12-23T23:20:57.307Z,11.20
2018-12-23T23:23:30.646Z,10.23
2018-12-23T23:26:01.806Z,9.77
2018-12-23T23:28:34.857Z,9.87
2018-12-23T23:31:06.701Z,10.80
2018-12-23T23:33:37.526Z,8.27
2018-12-23T23:36:07.794Z,8.17
2018-12-23T23:38:39.054Z,10.63
2018-12-23T23:41:09.908Z,8.30
2018-12-23T23:43:40.086Z,6.13
2018-12-23T23:46:10.401Z,5.03
2018-12-23T23:48:41.617Z,6.50
2018-12-23T23:51:14.254Z,5.43
2018-12-23T23:53:46.222Z,7.50
2018-12-23T23:56:16.201Z,6.90
2018-12-23T23:58:47.593Z,7.03
